sensor_id;sensor_type;location;lat;lon;timestamp;pressure;altitude;pressure_sealevel;temperature;humidity
12195;BME280;27023;42.680;23.132;2022-09-09T00:00:47;92402.88;;;18.83;100.00
12195;BME280;27023;42.680;23.132;2022-09-09T00:03:19;92406.66;;;18.89;100.00
12195;BME280;27023;42.680;23.132;2022-09-09T00:05:54;92405.50;;;18.93;100.00
12195;BME280;27023;42.680;23.132;2022-09-09T00:08:31;92396.31;;;18.94;100.00
12195;BME280;27023;42.680;23.132;2022-09-09T00:11:03;92398.59;;;18.96;100.00
12195;BME280;27023;42.680;23.132;2022-09-09T00:13:36;92404.69;;;19.00;100.00
12195;BME280;27023;42.680;23.132;2022-09-09T00:16:10;92390.56;;;19.03;100.00
12195;BME280;27023;42.680;23.132;2022-09-09T00:18:52;92390.56;;;19.03;100.00
12195;BME280;27023;42.680;23.132;2022-09-09T00:21:25;92377.97;;;19.03;100.00
12195;BME280;27023;42.680;23.132;2022-09-09T00:23:58;92377.19;;;19.03;100.00
12195;BME280;27023;42.680;23.132;2022-09-09T00:26:30;92375.69;;;18.98;100.00
12195;BME280;27023;42.680;23.132;2022-09-09T00:29:05;92370.41;;;18.91;100.00
12195;BME280;27023;42.680;23.132;2022-09-09T00:31:36;92361.34;;;18.75;100.00
12195;BME280;27023;42.680;23.132;2022-09-09T00:34:11;92367.47;;;18.71;100.00
12195;BME280;27023;42.680;23.132;2022-09-09T00:36:40;92363.63;;;18.72;100.00
12195;BME280;27023;42.680;23.132;2022-09-09T00:39:23;92364.75;;;18.79;100.00
12195;BME280;27023;42.680;23.132;2022-09-09T00:42:04;92362.84;;;18.79;100.00
12195;BME280;27023;42.680;23.132;2022-09-09T00:44:37;92364.38;;;18.77;100.00
12195;BME280;27023;42.680;23.132;2022-09-09T00:47:12;92368.97;;;18.72;100.00
12195;BME280;27023;42.680;23.132;2022-09-09T00:49:53;92364.41;;;18.73;100.00
12195;BME280;27023;42.680;23.132;2022-09-09T00:52:34;92367.84;;;18.70;100.00
12195;BME280;27023;42.680;23.132;2022-09-09T00:55:10;92369.00;;;18.65;100.00
12195;BME280;27023;42.680;23.132;2022-09-09T00:57:41;92367.47;;;18.61;100.00
12195;BME280;27023;42.680;23.132;2022-09-09T01:00:20;92373.59;;;18.47;100.00
12195;BME280;27023;42.680;23.132;2022-09-09T01:02:56;92369.81;;;18.45;100.00
12195;BME280;27023;42.680;23.132;2022-09-09T01:05:34;92364.13;;;18.32;100.00
12195;BME280;27023;42.680;23.132;2022-09-09T01:08:11;92373.25;;;18.38;100.00
12195;BME280;27023;42.680;23.132;2022-09-09T01:10:48;92369.06;;;18.37;100.00
12195;BME280;27023;42.680;23.132;2022-09-09T01:13:26;92370.97;;;18.36;100.00
12195;BME280;27023;42.680;23.132;2022-09-09T01:15:57;92369.06;;;18.37;100.00
12195;BME280;27023;42.680;23.132;2022-09-09T01:18:28;92372.56;;;18.20;100.00
12195;BME280;27023;42.680;23.132;2022-09-09T01:21:04;92369.94;;;18.05;100.00
12195;BME280;27023;42.680;23.132;2022-09-09T01:23:44;92365.75;;;18.04;100.00
12195;BME280;27023;42.680;23.132;2022-09-09T01:26:19;92366.91;;;17.89;100.00
12195;BME280;27023;42.680;23.132;2022-09-09T01:28:49;92373.75;;;17.76;100.00
12195;BME280;27023;42.680;23.132;2022-09-09T01:31:20;92376.78;;;17.64;100.00
12195;BME280;27023;42.680;23.132;2022-09-09T01:33:48;92384.41;;;17.51;100.00
12195;BME280;27023;42.680;23.132;2022-09-09T01:36:21;92380.97;;;17.58;100.00
12195;BME280;27023;42.680;23.132;2022-09-09T01:38:50;92376.41;;;17.62;100.00
12195;BME280;27023;42.680;23.132;2022-09-09T01:41:19;92374.50;;;17.66;100.00
12195;BME280;27023;42.680;23.132;2022-09-09T01:43:46;92376.78;;;17.64;100.00
12195;BME280;27023;42.680;23.132;2022-09-09T01:46:13;92380.63;;;17.70;100.00
12195;BME280;27023;42.680;23.132;2022-09-09T01:48:41;92373.38;;;17.77;100.00
12195;BME280;27023;42.680;23.132;2022-09-09T01:51:08;92366.91;;;17.82;100.00
12195;BME280;27023;42.680;23.132;2022-09-09T01:53:35;92376.44;;;17.90;100.00
12195;BME280;27023;42.680;23.132;2022-09-09T01:56:11;92374.53;;;17.94;100.00
12195;BME280;27023;42.680;23.132;2022-09-09T01:58:56;92368.06;;;17.88;100.00
12195;BME280;27023;42.680;23.132;2022-09-09T02:01:35;92369.19;;;17.73;100.00
12195;BME280;27023;42.680;23.132;2022-09-09T02:04:14;92369.19;;;17.76;100.00
12195;BME280;27023;42.680;23.132;2022-09-09T02:06:45;92374.13;;;17.82;100.00
12195;BME280;27023;42.680;23.132;2022-09-09T02:09:17;92363.09;;;17.72;100.00
12195;BME280;27023;42.680;23.132;2022-09-09T02:11:47;92358.16;;;17.78;100.00
12195;BME280;27023;42.680;23.132;2022-09-09T02:14:21;92368.03;;;17.35;100.00
12195;BME280;27023;42.680;23.132;2022-09-09T02:16:51;92371.84;;;17.37;100.00
12195;BME280;27023;42.680;23.132;2022-09-09T02:19:23;92371.41;;;16.96;100.00
12195;BME280;27023;42.680;23.132;2022-09-09T02:21:54;92367.47;;;16.55;100.00
12195;BME280;27023;42.680;23.132;2022-09-09T02:24:22;92377.41;;;16.68;100.00
12195;BME280;27023;42.680;23.132;2022-09-09T02:26:53;92377.03;;;16.70;100.00
12195;BME280;27023;42.680;23.132;2022-09-09T02:29:25;92381.16;;;16.53;100.00
12195;BME280;27023;42.680;23.132;2022-09-09T02:31:55;92384.59;;;16.64;100.00
12195;BME280;27023;42.680;23.132;2022-09-09T02:34:24;92384.22;;;16.62;100.00
12195;BME280;27023;42.680;23.132;2022-09-09T02:36:53;92390.25;;;16.52;100.00
12195;BME280;27023;42.680;23.132;2022-09-09T02:39:21;92388.69;;;16.40;100.00
12195;BME280;27023;42.680;23.132;2022-09-09T02:41:48;92380.00;;;16.54;100.00
12195;BME280;27023;42.680;23.132;2022-09-09T02:44:17;92383.38;;;16.37;100.00
12195;BME280;27023;42.680;23.132;2022-09-09T02:46:58;92393.66;;;15.76;100.00
12195;BME280;27023;42.680;23.132;2022-09-09T02:49:36;92395.25;;;15.88;100.00
12195;BME280;27023;42.680;23.132;2022-09-09T02:52:08;92398.72;;;15.96;100.00
12195;BME280;27023;42.680;23.132;2022-09-09T02:54:38;92384.53;;;15.74;100.00
12195;BME280;27023;42.680;23.132;2022-09-09T02:57:08;92387.75;;;16.04;100.00
12195;BME280;27023;42.680;23.132;2022-09-09T02:59:37;92379.47;;;16.20;100.00
12195;BME280;27023;42.680;23.132;2022-09-09T03:02:05;92385.94;;;16.23;100.00
12195;BME280;27023;42.680;23.132;2022-09-09T03:04:32;92382.78;;;16.03;100.00
12195;BME280;27023;42.680;23.132;2022-09-09T03:06:59;92387.38;;;15.54;100.00
12195;BME280;27023;42.680;23.132;2022-09-09T03:09:26;92390.41;;;15.56;100.00
12195;BME280;27023;42.680;23.132;2022-09-09T03:11:53;92385.25;;;15.67;100.00
12195;BME280;27023;42.680;23.132;2022-09-09T03:14:20;92389.06;;;15.70;100.00
12195;BME280;27023;42.680;23.132;2022-09-09T03:16:49;92379.94;;;15.71;100.00
12195;BME280;27023;42.680;23.132;2022-09-09T03:19:17;92376.63;;;15.88;100.00
12195;BME280;27023;42.680;23.132;2022-09-09T03:21:45;92372.53;;;16.01;100.00
12195;BME280;27023;42.680;23.132;2022-09-09T03:24:12;92365.78;;;16.21;100.00
12195;BME280;27023;42.680;23.132;2022-09-09T03:26:39;92358.78;;;15.85;100.00
12195;BME280;27023;42.680;23.132;2022-09-09T03:29:06;92355.81;;;15.97;100.00
12195;BME280;27023;42.680;23.132;2022-09-09T03:31:33;92346.00;;;16.12;100.00
12195;BME280;27023;42.680;23.132;2022-09-09T03:34:01;92352.88;;;16.20;100.00
12195;BME280;27023;42.680;23.132;2022-09-09T03:36:29;92354.38;;;16.17;100.00
12195;BME280;27023;42.680;23.132;2022-09-09T03:38:57;92362.88;;;16.41;100.00
12195;BME280;27023;42.680;23.132;2022-09-09T03:41:24;92366.31;;;16.52;100.00
12195;BME280;27023;42.680;23.132;2022-09-09T03:43:52;92369.06;;;16.70;100.00
12195;BME280;27023;42.680;23.132;2022-09-09T03:46:19;92378.22;;;16.79;100.00
12195;BME280;27023;42.680;23.132;2022-09-09T03:48:46;92378.59;;;16.81;100.00
12195;BME280;27023;42.680;23.132;2022-09-09T03:51:13;92386.59;;;16.81;100.00
12195;BME280;27023;42.680;23.132;2022-09-09T03:53:42;92372.69;;;16.33;100.00
12195;BME280;27023;42.680;23.132;2022-09-09T03:56:08;92374.19;;;16.31;100.00
12195;BME280;27023;42.680;23.132;2022-09-09T03:58:36;92376.47;;;16.29;100.00
12195;BME280;27023;42.680;23.132;2022-09-09T04:01:05;92373.13;;;16.42;100.00
12195;BME280;27023;42.680;23.132;2022-09-09T04:03:33;92369.72;;;16.42;100.00
12195;BME280;27023;42.680;23.132;2022-09-09T04:06:01;92375.41;;;16.40;100.00
12195;BME280;27023;42.680;23.132;2022-09-09T04:08:28;92384.06;;;16.27;100.00
12195;BME280;27023;42.680;23.132;2022-09-09T04:10:57;92390.34;;;15.97;100.00
12195;BME280;27023;42.680;23.132;2022-09-09T04:13:27;92379.75;;;16.04;100.00
12195;BME280;27023;42.680;23.132;2022-09-09T04:15:56;92383.66;;;16.25;100.00
12195;BME280;27023;42.680;23.132;2022-09-09T04:18:23;92385.00;;;15.90;100.00
12195;BME280;27023;42.680;23.132;2022-09-09T04:20:52;92375.03;;;15.76;100.00
12195;BME280;27023;42.680;23.132;2022-09-09T04:23:20;92376.94;;;15.76;100.00
12195;BME280;27023;42.680;23.132;2022-09-09T04:25:48;92387.69;;;15.94;100.00
12195;BME280;27023;42.680;23.132;2022-09-09T04:28:18;92383.09;;;15.87;100.00
12195;BME280;27023;42.680;23.132;2022-09-09T04:30:45;92383.59;;;15.55;100.00
12195;BME280;27023;42.680;23.132;2022-09-09T04:33:12;92400.03;;;15.65;100.00
12195;BME280;27023;42.680;23.132;2022-09-09T04:35:44;92392.66;;;15.99;100.00
12195;BME280;27023;42.680;23.132;2022-09-09T04:38:11;92395.31;;;16.02;100.00
12195;BME280;27023;42.680;23.132;2022-09-09T04:40:38;92389.94;;;15.88;100.00
12195;BME280;27023;42.680;23.132;2022-09-09T04:43:08;92390.72;;;15.92;100.00
12195;BME280;27023;42.680;23.132;2022-09-09T04:45:36;92386.81;;;15.75;100.00
12195;BME280;27023;42.680;23.132;2022-09-09T04:48:05;92379.94;;;15.71;100.00
12195;BME280;27023;42.680;23.132;2022-09-09T04:50:32;92376.28;;;15.93;100.00
12195;BME280;27023;42.680;23.132;2022-09-09T04:53:00;92379.41;;;16.06;100.00
12195;BME280;27023;42.680;23.132;2022-09-09T04:55:27;92361.25;;;16.26;100.00
12195;BME280;27023;42.680;23.132;2022-09-09T04:57:54;92372.66;;;16.26;100.00
12195;BME280;27023;42.680;23.132;2022-09-09T05:00:22;92360.28;;;16.62;100.00
12195;BME280;27023;42.680;23.132;2022-09-09T05:02:50;92351.97;;;16.81;100.00
12195;BME280;27023;42.680;23.132;2022-09-09T05:05:17;92354.66;;;16.99;100.00
12195;BME280;27023;42.680;23.132;2022-09-09T05:07:44;92349.00;;;17.15;100.00
12195;BME280;27023;42.680;23.132;2022-09-09T05:10:12;92348.63;;;17.27;100.00
12195;BME280;27023;42.680;23.132;2022-09-09T05:12:42;92353.16;;;16.98;100.00
12195;BME280;27023;42.680;23.132;2022-09-09T05:15:09;92349.34;;;17.03;100.00
12195;BME280;27023;42.680;23.132;2022-09-09T05:17:37;92335.31;;;17.20;100.00
12195;BME280;27023;42.680;23.132;2022-09-09T05:20:05;92343.31;;;17.38;100.00
12195;BME280;27023;42.680;23.132;2022-09-09T05:22:32;92352.81;;;17.35;100.00
12195;BME280;27023;42.680;23.132;2022-09-09T05:24:59;92360.03;;;17.56;100.00
12195;BME280;27023;42.680;23.132;2022-09-09T05:27:26;92364.59;;;17.63;100.00
12195;BME280;27023;42.680;23.132;2022-09-09T05:29:53;92376.06;;;17.70;100.00
12195;BME280;27023;42.680;23.132;2022-09-09T05:32:20;92381.75;;;17.72;100.00
12195;BME280;27023;42.680;23.132;2022-09-09T05:34:46;92380.59;;;17.63;100.00
12195;BME280;27023;42.680;23.132;2022-09-09T05:37:15;92383.66;;;17.51;100.00
12195;BME280;27023;42.680;23.132;2022-09-09T05:39:42;92378.31;;;17.22;100.00
12195;BME280;27023;42.680;23.132;2022-09-09T05:42:09;92376.78;;;17.57;100.00
12195;BME280;27023;42.680;23.132;2022-09-09T05:44:36;92387.47;;;17.57;100.00
12195;BME280;27023;42.680;23.132;2022-09-09T05:47:03;92376.78;;;17.42;100.00
12195;BME280;27023;42.680;23.132;2022-09-09T05:49:29;92377.94;;;17.63;100.00
12195;BME280;27023;42.680;23.132;2022-09-09T05:51:57;92378.72;;;17.74;100.00
12195;BME280;27023;42.680;23.132;2022-09-09T05:54:25;92380.63;;;17.84;100.00
12195;BME280;27023;42.680;23.132;2022-09-09T05:56:51;92383.69;;;17.90;100.00
12195;BME280;27023;42.680;23.132;2022-09-09T05:59:18;92390.88;;;17.82;100.00
12195;BME280;27023;42.680;23.132;2022-09-09T06:01:46;92379.09;;;17.90;100.00
12195;BME280;27023;42.680;23.132;2022-09-09T06:04:12;92384.41;;;18.04;100.00
12195;BME280;27023;42.680;23.132;2022-09-09T06:06:39;92387.09;;;17.87;100.00
12195;BME280;27023;42.680;23.132;2022-09-09T06:09:08;92395.84;;;18.05;100.00
12195;BME280;27023;42.680;23.132;2022-09-09T06:11:38;92398.09;;;18.14;100.00
12195;BME280;27023;42.680;23.132;2022-09-09T06:14:05;92390.91;;;17.89;100.00
12195;BME280;27023;42.680;23.132;2022-09-09T06:16:39;92392.03;;;17.99;100.00
12195;BME280;27023;42.680;23.132;2022-09-09T06:19:14;92395.03;;;18.19;100.00
12195;BME280;27023;42.680;23.132;2022-09-09T06:21:41;92398.09;;;18.21;100.00
12195;BME280;27023;42.680;23.132;2022-09-09T06:24:07;92390.50;;;18.05;100.00
12195;BME280;27023;42.680;23.132;2022-09-09T06:26:37;92395.09;;;17.90;100.00
12195;BME280;27023;42.680;23.132;2022-09-09T06:29:07;92392.38;;;18.15;100.00
12195;BME280;27023;42.680;23.132;2022-09-09T06:31:35;92382.06;;;18.28;100.00
12195;BME280;27023;42.680;23.132;2022-09-09T06:34:04;92375.16;;;18.37;100.00
12195;BME280;27023;42.680;23.132;2022-09-09T06:36:32;92386.94;;;18.51;100.00
12195;BME280;27023;42.680;23.132;2022-09-09T06:38:59;92391.47;;;18.57;100.00
12195;BME280;27023;42.680;23.132;2022-09-09T06:41:28;92387.31;;;18.53;100.00
12195;BME280;27023;42.680;23.132;2022-09-09T06:43:57;92391.13;;;18.62;100.00
12195;BME280;27023;42.680;23.132;2022-09-09T06:46:25;92394.94;;;18.54;100.00
12195;BME280;27023;42.680;23.132;2022-09-09T06:48:54;92394.97;;;18.47;100.00
12195;BME280;27023;42.680;23.132;2022-09-09T06:51:23;92403.31;;;18.67;100.00
12195;BME280;27023;42.680;23.132;2022-09-09T06:53:53;92404.06;;;18.75;100.00
12195;BME280;27023;42.680;23.132;2022-09-09T06:56:21;92404.72;;;18.93;100.00
12195;BME280;27023;42.680;23.132;2022-09-09T06:58:49;92409.06;;;18.44;100.00
12195;BME280;27023;42.680;23.132;2022-09-09T07:01:19;92412.06;;;18.78;100.00
12195;BME280;27023;42.680;23.132;2022-09-09T07:03:48;92414.22;;;19.01;100.00
12195;BME280;27023;42.680;23.132;2022-09-09T07:06:17;92402.34;;;19.09;100.00
12195;BME280;27023;42.680;23.132;2022-09-09T07:08:48;92400.44;;;19.10;100.00
12195;BME280;27023;42.680;23.132;2022-09-09T07:11:15;92397.28;;;19.25;100.00
12195;BME280;27023;42.680;23.132;2022-09-09T07:13:42;92409.84;;;19.32;100.00
12195;BME280;27023;42.680;23.132;2022-09-09T07:16:10;92405.59;;;19.42;100.00
12195;BME280;27023;42.680;23.132;2022-09-09T07:18:38;92393.31;;;19.51;100.00
12195;BME280;27023;42.680;23.132;2022-09-09T07:21:05;92396.66;;;19.66;100.00
12195;BME280;27023;42.680;23.132;2022-09-09T07:23:34;92401.50;;;19.82;100.00
12195;BME280;27023;42.680;23.132;2022-09-09T07:26:02;92390.41;;;19.83;100.00
12195;BME280;27023;42.680;23.132;2022-09-09T07:28:33;92387.44;;;19.74;100.00
12195;BME280;27023;42.680;23.132;2022-09-09T07:31:01;92393.00;;;19.94;100.00
12195;BME280;27023;42.680;23.132;2022-09-09T07:33:29;92388.66;;;20.11;100.00
12195;BME280;27023;42.680;23.132;2022-09-09T07:36:03;92399.31;;;20.14;100.00
12195;BME280;27023;42.680;23.132;2022-09-09T07:38:31;92393.44;;;20.30;100.00
12195;BME280;27023;42.680;23.132;2022-09-09T07:41:03;92398.66;;;20.44;100.00
12195;BME280;27023;42.680;23.132;2022-09-09T07:43:30;92399.03;;;20.46;100.00
12195;BME280;27023;42.680;23.132;2022-09-09T07:45:59;92406.06;;;20.29;100.00
12195;BME280;27023;42.680;23.132;2022-09-09T07:48:26;92399.75;;;20.50;100.00
12195;BME280;27023;42.680;23.132;2022-09-09T07:51:04;92413.19;;;20.81;100.00
12195;BME280;27023;42.680;23.132;2022-09-09T07:53:32;92406.13;;;20.60;100.00
12195;BME280;27023;42.680;23.132;2022-09-09T07:56:03;92406.22;;;20.87;100.00
12195;BME280;27023;42.680;23.132;2022-09-09T07:58:29;92398.91;;;21.18;100.00
12195;BME280;27023;42.680;23.132;2022-09-09T08:00:56;92404.16;;;21.29;100.00
12195;BME280;27023;42.680;23.132;2022-09-09T08:03:23;92408.63;;;21.39;100.00
12195;BME280;27023;42.680;23.132;2022-09-09T08:05:50;92401.97;;;21.47;100.00
12195;BME280;27023;42.680;23.132;2022-09-09T08:08:18;92414.19;;;21.21;100.00
12195;BME280;27023;42.680;23.132;2022-09-09T08:10:45;92415.09;;;21.41;100.00
12195;BME280;27023;42.680;23.132;2022-09-09T08:13:11;92411.84;;;21.53;100.00
12195;BME280;27023;42.680;23.132;2022-09-09T08:15:39;92415.00;;;21.75;100.00
12195;BME280;27023;42.680;23.132;2022-09-09T08:18:06;92407.19;;;21.84;100.00
12195;BME280;27023;42.680;23.132;2022-09-09T08:20:36;92411.63;;;21.95;100.00
12195;BME280;27023;42.680;23.132;2022-09-09T08:23:02;92404.63;;;22.24;100.00
12195;BME280;27023;42.680;23.132;2022-09-09T08:25:31;92406.31;;;22.38;100.00
12195;BME280;27023;42.680;23.132;2022-09-09T08:27:59;92398.66;;;22.36;100.00
12195;BME280;27023;42.680;23.132;2022-09-09T08:30:26;92395.72;;;22.31;100.00
12195;BME280;27023;42.680;23.132;2022-09-09T08:32:53;92405.50;;;22.61;100.00
12195;BME280;27023;42.680;23.132;2022-09-09T08:35:19;92409.50;;;22.52;100.00
12195;BME280;27023;42.680;23.132;2022-09-09T08:37:46;92403.13;;;22.86;100.00
12195;BME280;27023;42.680;23.132;2022-09-09T08:40:18;92400.47;;;23.02;100.00
12195;BME280;27023;42.680;23.132;2022-09-09T08:42:50;92391.97;;;23.07;100.00
12195;BME280;27023;42.680;23.132;2022-09-09T08:45:28;92397.41;;;23.04;100.00
12195;BME280;27023;42.680;23.132;2022-09-09T08:48:09;92398.69;;;23.16;100.00
12195;BME280;27023;42.680;23.132;2022-09-09T08:50:42;92396.63;;;23.39;100.00
12195;BME280;27023;42.680;23.132;2022-09-09T08:53:15;92393.47;;;23.44;100.00
12195;BME280;27023;42.680;23.132;2022-09-09T08:55:45;92396.59;;;23.59;100.00
12195;BME280;27023;42.680;23.132;2022-09-09T08:58:17;92395.34;;;23.64;100.00
12195;BME280;27023;42.680;23.132;2022-09-09T09:00:57;92393.75;;;23.66;100.00
12195;BME280;27023;42.680;23.132;2022-09-09T09:03:33;92402.50;;;23.70;100.00
12195;BME280;27023;42.680;23.132;2022-09-09T09:06:09;92409.25;;;23.95;100.00
12195;BME280;27023;42.680;23.132;2022-09-09T09:08:45;92406.81;;;24.00;100.00
12195;BME280;27023;42.680;23.132;2022-09-09T09:11:14;92405.03;;;24.10;100.00
12195;BME280;27023;42.680;23.132;2022-09-09T09:13:47;92399.91;;;24.16;100.00
12195;BME280;27023;42.680;23.132;2022-09-09T09:16:21;92406.53;;;24.11;100.00
12195;BME280;27023;42.680;23.132;2022-09-09T09:18:51;92405.44;;;24.08;100.00
12195;BME280;27023;42.680;23.132;2022-09-09T09:21:21;92399.97;;;24.28;100.00
12195;BME280;27023;42.680;23.132;2022-09-09T09:23:56;92396.78;;;24.33;100.00
12195;BME280;27023;42.680;23.132;2022-09-09T09:26:26;92400.13;;;24.37;100.00
12195;BME280;27023;42.680;23.132;2022-09-09T09:28:56;92394.31;;;24.23;100.00
12195;BME280;27023;42.680;23.132;2022-09-09T09:31:25;92394.94;;;24.14;100.00
12195;BME280;27023;42.680;23.132;2022-09-09T09:33:53;92386.47;;;23.31;100.00
12195;BME280;27023;42.680;23.132;2022-09-09T09:36:24;92393.94;;;23.23;100.00
12195;BME280;27023;42.680;23.132;2022-09-09T09:38:54;92393.28;;;23.52;100.00
12195;BME280;27023;42.680;23.132;2022-09-09T09:41:32;92388.19;;;23.57;100.00
12195;BME280;27023;42.680;23.132;2022-09-09T09:44:03;92391.19;;;23.43;100.00
12195;BME280;27023;42.680;23.132;2022-09-09T09:46:30;92389.22;;;23.27;100.00
12195;BME280;27023;42.680;23.132;2022-09-09T09:48:58;92387.25;;;23.11;100.00
12195;BME280;27023;42.680;23.132;2022-09-09T09:51:25;92386.47;;;23.47;100.00
12195;BME280;27023;42.680;23.132;2022-09-09T09:53:53;92386.78;;;23.69;100.00
12195;BME280;27023;42.680;23.132;2022-09-09T09:56:27;92385.03;;;23.79;100.00
12195;BME280;27023;42.680;23.132;2022-09-09T09:58:55;92392.75;;;23.76;100.00
12195;BME280;27023;42.680;23.132;2022-09-09T10:01:24;92384.03;;;23.53;100.00
12195;BME280;27023;42.680;23.132;2022-09-09T10:03:53;92399.25;;;22.67;100.00
12195;BME280;27023;42.680;23.132;2022-09-09T10:06:29;92397.88;;;22.99;100.00
12195;BME280;27023;42.680;23.132;2022-09-09T10:08:56;92393.06;;;23.10;100.00
12195;BME280;27023;42.680;23.132;2022-09-09T10:11:30;92400.97;;;22.58;100.00
12195;BME280;27023;42.680;23.132;2022-09-09T10:14:08;92406.13;;;22.02;100.00
12195;BME280;27023;42.680;23.132;2022-09-09T10:16:55;92412.09;;;22.36;100.00
12195;BME280;27023;42.680;23.132;2022-09-09T10:19:30;92404.88;;;22.53;100.00
12195;BME280;27023;42.680;23.132;2022-09-09T10:22:04;92399.09;;;22.55;100.00
12195;BME280;27023;42.680;23.132;2022-09-09T10:24:49;92403.81;;;22.90;100.00
12195;BME280;27023;42.680;23.132;2022-09-09T10:27:22;92404.88;;;22.73;100.00
12195;BME280;27023;42.680;23.132;2022-09-09T10:30:00;92411.44;;;22.52;100.00
12195;BME280;27023;42.680;23.132;2022-09-09T10:32:40;92417.63;;;22.49;100.00
12195;BME280;27023;42.680;23.132;2022-09-09T10:35:27;92416.41;;;22.73;100.00
12195;BME280;27023;42.680;23.132;2022-09-09T10:38:14;92420.66;;;22.71;100.00
12195;BME280;27023;42.680;23.132;2022-09-09T10:40:46;92419.66;;;22.85;100.00
12195;BME280;27023;42.680;23.132;2022-09-09T10:43:31;92422.81;;;22.99;100.00
12195;BME280;27023;42.680;23.132;2022-09-09T10:46:08;92421.16;;;23.25;100.00
12195;BME280;27023;42.680;23.132;2022-09-09T10:48:53;92410.50;;;23.38;100.00
12195;BME280;27023;42.680;23.132;2022-09-09T10:51:33;92418.84;;;23.07;100.00
12195;BME280;27023;42.680;23.132;2022-09-09T10:54:15;92412.13;;;23.52;100.00
12195;BME280;27023;42.680;23.132;2022-09-09T10:56:49;92417.34;;;23.79;100.00
12195;BME280;27023;42.680;23.132;2022-09-09T10:59:22;92420.84;;;23.75;100.00
12195;BME280;27023;42.680;23.132;2022-09-09T11:01:54;92420.03;;;23.79;100.00
12195;BME280;27023;42.680;23.132;2022-09-09T11:04:28;92421.03;;;24.01;100.00
12195;BME280;27023;42.680;23.132;2022-09-09T11:06:58;92417.66;;;24.29;100.00
12195;BME280;27023;42.680;23.132;2022-09-09T11:09:32;92413.06;;;24.59;100.00
12195;BME280;27023;42.680;23.132;2022-09-09T11:12:01;92408.88;;;24.42;100.00
12195;BME280;27023;42.680;23.132;2022-09-09T11:14:31;92397.50;;;24.79;100.00
12195;BME280;27023;42.680;23.132;2022-09-09T11:17:03;92407.31;;;24.73;100.00
12195;BME280;27023;42.680;23.132;2022-09-09T11:19:34;92400.72;;;24.74;100.00
12195;BME280;27023;42.680;23.132;2022-09-09T11:22:06;92392.53;;;25.07;100.00
12195;BME280;27023;42.680;23.132;2022-09-09T11:24:38;92394.03;;;24.66;100.00
12195;BME280;27023;42.680;23.132;2022-09-09T11:27:09;92371.50;;;24.44;100.00
12195;BME280;27023;42.680;23.132;2022-09-09T11:33:04;92362.00;;;24.39;100.00
12195;BME280;27023;42.680;23.132;2022-09-09T11:35:45;92353.69;;;24.33;100.00
12195;BME280;27023;42.680;23.132;2022-09-09T11:38:20;92350.03;;;24.40;100.00
12195;BME280;27023;42.680;23.132;2022-09-09T11:40:54;92335.88;;;24.07;100.00
12195;BME280;27023;42.680;23.132;2022-09-09T11:43:27;92336.00;;;24.32;100.00
12195;BME280;27023;42.680;23.132;2022-09-09T11:45:55;92341.09;;;24.43;100.00
12195;BME280;27023;42.680;23.132;2022-09-09T11:48:28;92340.47;;;24.23;100.00
12195;BME280;27023;42.680;23.132;2022-09-09T11:51:02;92344.25;;;24.25;100.00
12195;BME280;27023;42.680;23.132;2022-09-09T11:53:30;92352.22;;;23.84;100.00
12195;BME280;27023;42.680;23.132;2022-09-09T11:56:13;92342.78;;;24.08;100.00
12195;BME280;27023;42.680;23.132;2022-09-09T11:58:55;92334.88;;;24.46;100.00
12195;BME280;27023;42.680;23.132;2022-09-09T12:01:37;92339.25;;;24.56;100.00
12195;BME280;27023;42.680;23.132;2022-09-09T12:04:30;92317.72;;;24.69;100.00
12195;BME280;27023;42.680;23.132;2022-09-09T12:07:00;92321.78;;;24.61;100.00
12195;BME280;27023;42.680;23.132;2022-09-09T12:09:33;92305.84;;;24.66;100.00
12195;BME280;27023;42.680;23.132;2022-09-09T12:12:05;92320.59;;;24.62;100.00
12195;BME280;27023;42.680;23.132;2022-09-09T12:14:38;92303.88;;;24.54;100.00
12195;BME280;27023;42.680;23.132;2022-09-09T12:17:10;92304.34;;;24.65;100.00
12195;BME280;27023;42.680;23.132;2022-09-09T12:19:44;92300.56;;;24.63;100.00
12195;BME280;27023;42.680;23.132;2022-09-09T12:22:19;92305.97;;;24.34;100.00
12195;BME280;27023;42.680;23.132;2022-09-09T12:24:54;92301.47;;;24.44;100.00
12195;BME280;27023;42.680;23.132;2022-09-09T12:27:27;92306.94;;;24.11;100.00
12195;BME280;27023;42.680;23.132;2022-09-09T12:29:57;92310.47;;;24.08;100.00
12195;BME280;27023;42.680;23.132;2022-09-09T12:32:28;92297.38;;;23.94;100.00
12195;BME280;27023;42.680;23.132;2022-09-09T12:34:59;92303.47;;;24.11;100.00
12195;BME280;27023;42.680;23.132;2022-09-09T12:37:32;92290.00;;;24.11;100.00
12195;BME280;27023;42.680;23.132;2022-09-09T12:40:03;92292.13;;;24.03;100.00
12195;BME280;27023;42.680;23.132;2022-09-09T12:42:30;92296.97;;;24.24;100.00
12195;BME280;27023;42.680;23.132;2022-09-09T12:44:59;92282.16;;;24.32;100.00
12195;BME280;27023;42.680;23.132;2022-09-09T12:47:36;92273.63;;;24.05;100.00
12195;BME280;27023;42.680;23.132;2022-09-09T12:50:04;92274.47;;;24.02;100.00
12195;BME280;27023;42.680;23.132;2022-09-09T12:52:35;92268.09;;;23.96;100.00
12195;BME280;27023;42.680;23.132;2022-09-09T12:55:05;92274.47;;;24.02;100.00
12195;BME280;27023;42.680;23.132;2022-09-09T12:57:35;92272.50;;;23.90;100.00
12195;BME280;27023;42.680;23.132;2022-09-09T13:00:15;92272.31;;;23.97;100.00
12195;BME280;27023;42.680;23.132;2022-09-09T13:02:46;92282.97;;;24.00;100.00